sensor_id;sensor_type;location;lat;lon;timestamp;pressure;altitude;pressure_sealevel;temperature;humidity
56689;BME280;42565;53.342;-1.534;2022-12-26T00:02:19;97471.68;;;6.05;93.81
56689;BME280;42565;53.342;-1.534;2022-12-26T00:04:47;97487.46;;;6.54;90.33
56689;BME280;42565;53.342;-1.534;2022-12-26T00:07:14;97472.33;;;6.60;90.48
56689;BME280;42565;53.342;-1.534;2022-12-26T00:09:40;97462.71;;;6.19;93.07
56689;BME280;42565;53.342;-1.534;2022-12-26T00:12:08;97460.96;;;5.87;95.11
56689;BME280;42565;53.342;-1.534;2022-12-26T00:14:35;97469.20;;;6.13;92.95
56689;BME280;42565;53.342;-1.534;2022-12-26T00:17:01;97461.53;;;5.91;92.99
56689;BME280;42565;53.342;-1.534;2022-12-26T00:19:28;97454.13;;;6.59;92.18
56689;BME280;42565;53.342;-1.534;2022-12-26T00:21:55;97452.12;;;6.50;92.50
56689;BME280;42565;53.342;-1.534;2022-12-26T00:24:22;97454.54;;;5.92;94.04
56689;BME280;42565;53.342;-1.534;2022-12-26T00:26:48;97451.41;;;6.27;93.57
56689;BME280;42565;53.342;-1.534;2022-12-26T00:29:15;97435.85;;;6.42;92.92
56689;BME280;42565;53.342;-1.534;2022-12-26T00:31:42;97423.96;;;5.51;96.85
56689;BME280;42565;53.342;-1.534;2022-12-26T00:34:09;97429.90;;;5.88;95.38
56689;BME280;42565;53.342;-1.534;2022-12-26T00:36:36;97427.10;;;5.95;94.87
56689;BME280;42565;53.342;-1.534;2022-12-26T00:39:04;97434.04;;;6.22;95.47
56689;BME280;42565;53.342;-1.534;2022-12-26T00:41:32;97435.22;;;6.49;93.27
56689;BME280;42565;53.342;-1.534;2022-12-26T00:43:59;97418.49;;;6.32;95.33
56689;BME280;42565;53.342;-1.534;2022-12-26T00:46:27;97420.78;;;6.24;94.19
56689;BME280;42565;53.342;-1.534;2022-12-26T00:48:54;97431.03;;;6.11;95.48
56689;BME280;42565;53.342;-1.534;2022-12-26T00:51:22;97414.44;;;5.79;97.01
56689;BME280;42565;53.342;-1.534;2022-12-26T00:53:48;97418.28;;;6.28;95.44
56689;BME280;42565;53.342;-1.534;2022-12-26T00:56:16;97412.38;;;5.92;96.99
56689;BME280;42565;53.342;-1.534;2022-12-26T00:58:44;97411.89;;;6.05;96.29
56689;BME280;42565;53.342;-1.534;2022-12-26T01:01:14;97413.83;;;6.42;94.52
56689;BME280;42565;53.342;-1.534;2022-12-26T01:03:42;97405.00;;;6.52;94.44
56689;BME280;42565;53.342;-1.534;2022-12-26T01:06:10;97409.15;;;6.81;92.28
56689;BME280;42565;53.342;-1.534;2022-12-26T01:08:38;97393.46;;;6.93;93.16
56689;BME280;42565;53.342;-1.534;2022-12-26T01:11:07;97389.26;;;6.90;91.76
56689;BME280;42565;53.342;-1.534;2022-12-26T01:13:35;97394.49;;;6.62;92.79
56689;BME280;42565;53.342;-1.534;2022-12-26T01:16:03;97383.58;;;6.84;93.39
56689;BME280;42565;53.342;-1.534;2022-12-26T01:18:31;97387.56;;;6.57;93.81
56689;BME280;42565;53.342;-1.534;2022-12-26T01:20:59;97397.64;;;6.94;91.96
56689;BME280;42565;53.342;-1.534;2022-12-26T01:23:27;97385.03;;;6.60;92.01
56689;BME280;42565;53.342;-1.534;2022-12-26T01:25:55;97383.52;;;6.67;92.92
56689;BME280;42565;53.342;-1.534;2022-12-26T01:28:22;97377.75;;;6.73;91.90
56689;BME280;42565;53.342;-1.534;2022-12-26T01:30:49;97381.25;;;6.62;92.05
56689;BME280;42565;53.342;-1.534;2022-12-26T01:33:16;97378.52;;;6.67;91.15
56689;BME280;42565;53.342;-1.534;2022-12-26T01:35:51;97375.73;;;7.19;88.99
56689;BME280;42565;53.342;-1.534;2022-12-26T01:38:19;97386.64;;;7.07;87.84
56689;BME280;42565;53.342;-1.534;2022-12-26T01:40:46;97393.08;;;7.13;87.84
56689;BME280;42565;53.342;-1.534;2022-12-26T01:43:15;97402.28;;;6.38;88.73
56689;BME280;42565;53.342;-1.534;2022-12-26T01:45:44;97397.41;;;6.06;84.95
56689;BME280;42565;53.342;-1.534;2022-12-26T01:48:18;97418.33;;;5.54;85.15
56689;BME280;42565;53.342;-1.534;2022-12-26T01:50:52;97412.06;;;5.64;81.95
56689;BME280;42565;53.342;-1.534;2022-12-26T01:53:26;97431.20;;;5.97;80.26
56689;BME280;42565;53.342;-1.534;2022-12-26T01:55:59;97434.18;;;5.21;81.28
56689;BME280;42565;53.342;-1.534;2022-12-26T01:58:30;97454.92;;;4.66;84.32
56689;BME280;42565;53.342;-1.534;2022-12-26T02:01:02;97459.09;;;4.32;83.03
56689;BME280;42565;53.342;-1.534;2022-12-26T02:03:30;97475.38;;;4.63;83.40
56689;BME280;42565;53.342;-1.534;2022-12-26T02:05:59;97524.54;;;4.25;83.57
56689;BME280;42565;53.342;-1.534;2022-12-26T02:08:29;97546.22;;;4.11;81.87
56689;BME280;42565;53.342;-1.534;2022-12-26T02:11:05;97565.61;;;3.91;81.17
56689;BME280;42565;53.342;-1.534;2022-12-26T02:13:36;97578.29;;;3.65;80.48
56689;BME280;42565;53.342;-1.534;2022-12-26T02:16:06;97589.08;;;4.17;80.00
56689;BME280;42565;53.342;-1.534;2022-12-26T02:18:34;97611.27;;;4.05;79.21
56689;BME280;42565;53.342;-1.534;2022-12-26T02:21:19;97633.27;;;4.35;78.05
56689;BME280;42565;53.342;-1.534;2022-12-26T02:24:15;97626.17;;;4.87;76.65
56689;BME280;42565;53.342;-1.534;2022-12-26T02:27:04;97622.05;;;4.03;76.95
56689;BME280;42565;53.342;-1.534;2022-12-26T02:30:44;97635.01;;;4.03;76.62
56689;BME280;42565;53.342;-1.534;2022-12-26T02:33:36;97671.46;;;4.11;76.17
56689;BME280;42565;53.342;-1.534;2022-12-26T02:36:20;97688.38;;;4.53;74.81
56689;BME280;42565;53.342;-1.534;2022-12-26T02:39:01;97690.27;;;4.21;73.00
56689;BME280;42565;53.342;-1.534;2022-12-26T02:41:33;97712.04;;;4.64;71.16
56689;BME280;42565;53.342;-1.534;2022-12-26T02:44:08;97735.89;;;4.66;70.38
56689;BME280;42565;53.342;-1.534;2022-12-26T02:46:42;97736.08;;;4.26;70.10
56689;BME280;42565;53.342;-1.534;2022-12-26T02:49:18;97739.09;;;4.42;69.97
56689;BME280;42565;53.342;-1.534;2022-12-26T02:51:56;97748.07;;;3.91;69.02
56689;BME280;42565;53.342;-1.534;2022-12-26T02:54:32;97769.76;;;4.32;69.04
56689;BME280;42565;53.342;-1.534;2022-12-26T02:57:04;97788.53;;;3.95;67.30
56689;BME280;42565;53.342;-1.534;2022-12-26T02:59:42;97799.78;;;4.32;66.43
56689;BME280;42565;53.342;-1.534;2022-12-26T03:02:30;97814.69;;;4.44;65.49
56689;BME280;42565;53.342;-1.534;2022-12-26T03:04:59;97815.44;;;4.29;66.21
56689;BME280;42565;53.342;-1.534;2022-12-26T03:07:30;97828.16;;;3.58;67.12
56689;BME280;42565;53.342;-1.534;2022-12-26T03:10:02;97830.71;;;3.75;66.41
56689;BME280;42565;53.342;-1.534;2022-12-26T03:12:37;97843.07;;;4.10;63.63
56689;BME280;42565;53.342;-1.534;2022-12-26T03:15:08;97852.26;;;4.25;60.85
56689;BME280;42565;53.342;-1.534;2022-12-26T03:17:40;97864.40;;;4.01;59.87
56689;BME280;42565;53.342;-1.534;2022-12-26T03:20:11;97871.09;;;3.82;60.88
56689;BME280;42565;53.342;-1.534;2022-12-26T03:22:42;97878.96;;;3.69;58.81
56689;BME280;42565;53.342;-1.534;2022-12-26T03:25:14;97882.19;;;4.28;57.35
56689;BME280;42565;53.342;-1.534;2022-12-26T03:27:44;97902.38;;;4.36;56.97
56689;BME280;42565;53.342;-1.534;2022-12-26T03:30:11;97900.57;;;4.08;58.28
56689;BME280;42565;53.342;-1.534;2022-12-26T03:32:41;97905.92;;;4.11;57.81
56689;BME280;42565;53.342;-1.534;2022-12-26T03:35:12;97919.99;;;4.11;57.88
56689;BME280;42565;53.342;-1.534;2022-12-26T03:37:46;97920.57;;;4.05;58.86
56689;BME280;42565;53.342;-1.534;2022-12-26T03:40:29;97932.50;;;4.11;57.77
56689;BME280;42565;53.342;-1.534;2022-12-26T03:43:04;97938.59;;;3.90;57.67
56689;BME280;42565;53.342;-1.534;2022-12-26T03:45:43;97948.51;;;4.24;56.77
56689;BME280;42565;53.342;-1.534;2022-12-26T03:48:16;97944.98;;;4.18;56.74
56689;BME280;42565;53.342;-1.534;2022-12-26T03:50:48;97970.70;;;4.23;57.02
56689;BME280;42565;53.342;-1.534;2022-12-26T03:53:21;97979.01;;;3.91;57.16
56689;BME280;42565;53.342;-1.534;2022-12-26T03:55:54;97982.28;;;4.33;56.87
56689;BME280;42565;53.342;-1.534;2022-12-26T03:58:28;97993.09;;;4.10;56.26
56689;BME280;42565;53.342;-1.534;2022-12-26T04:00:59;98003.99;;;4.22;53.28
56689;BME280;42565;53.342;-1.534;2022-12-26T04:03:29;98012.84;;;3.87;54.83
56689;BME280;42565;53.342;-1.534;2022-12-26T04:05:59;98023.11;;;3.99;54.00
56689;BME280;42565;53.342;-1.534;2022-12-26T04:08:36;98035.19;;;3.77;54.58
56689;BME280;42565;53.342;-1.534;2022-12-26T04:11:11;98040.64;;;3.61;55.99
56689;BME280;42565;53.342;-1.534;2022-12-26T04:13:49;98047.08;;;3.88;55.28
56689;BME280;42565;53.342;-1.534;2022-12-26T04:16:29;98048.37;;;3.61;55.34
56689;BME280;42565;53.342;-1.534;2022-12-26T04:19:02;98058.52;;;4.21;55.06
56689;BME280;42565;53.342;-1.534;2022-12-26T04:21:38;98071.51;;;3.96;55.86
56689;BME280;42565;53.342;-1.534;2022-12-26T04:24:11;98083.24;;;4.06;54.08
56689;BME280;42565;53.342;-1.534;2022-12-26T04:26:44;98082.71;;;4.80;53.38
56689;BME280;42565;53.342;-1.534;2022-12-26T04:29:12;98077.95;;;4.72;54.14
56689;BME280;42565;53.342;-1.534;2022-12-26T04:31:44;98093.63;;;4.11;54.28
56689;BME280;42565;53.342;-1.534;2022-12-26T04:34:19;98095.81;;;4.53;54.47
56689;BME280;42565;53.342;-1.534;2022-12-26T04:36:50;98109.88;;;4.39;53.69
56689;BME280;42565;53.342;-1.534;2022-12-26T04:39:22;98104.49;;;4.92;53.28
56689;BME280;42565;53.342;-1.534;2022-12-26T04:41:53;98116.04;;;4.81;52.83
56689;BME280;42565;53.342;-1.534;2022-12-26T04:44:22;98121.76;;;4.74;52.97
56689;BME280;42565;53.342;-1.534;2022-12-26T04:46:52;98130.14;;;4.21;53.74
56689;BME280;42565;53.342;-1.534;2022-12-26T04:49:20;98137.47;;;4.40;53.29
56689;BME280;42565;53.342;-1.534;2022-12-26T04:51:47;98146.21;;;4.84;53.55
56689;BME280;42565;53.342;-1.534;2022-12-26T04:54:14;98154.96;;;4.67;53.24
56689;BME280;42565;53.342;-1.534;2022-12-26T04:56:42;98154.42;;;4.76;53.38
56689;BME280;42565;53.342;-1.534;2022-12-26T04:59:09;98166.78;;;5.46;52.60
56689;BME280;42565;53.342;-1.534;2022-12-26T05:01:36;98168.45;;;4.92;52.63
56689;BME280;42565;53.342;-1.534;2022-12-26T05:04:03;98173.00;;;4.58;52.40
56689;BME280;42565;53.342;-1.534;2022-12-26T05:06:30;98172.66;;;5.48;50.75
56689;BME280;42565;53.342;-1.534;2022-12-26T05:08:57;98174.22;;;5.59;51.08
56689;BME280;42565;53.342;-1.534;2022-12-26T05:11:25;98184.74;;;5.01;51.81
56689;BME280;42565;53.342;-1.534;2022-12-26T05:13:54;98174.66;;;5.08;52.09
56689;BME280;42565;53.342;-1.534;2022-12-26T05:16:22;98182.27;;;5.22;52.32
56689;BME280;42565;53.342;-1.534;2022-12-26T05:18:50;98184.96;;;4.74;53.24
56689;BME280;42565;53.342;-1.534;2022-12-26T05:21:17;98188.53;;;4.76;53.27
56689;BME280;42565;53.342;-1.534;2022-12-26T05:23:44;98190.32;;;4.88;53.68
56689;BME280;42565;53.342;-1.534;2022-12-26T05:26:14;98197.14;;;5.22;54.12
56689;BME280;42565;53.342;-1.534;2022-12-26T05:28:42;98194.82;;;4.18;55.51
56689;BME280;42565;53.342;-1.534;2022-12-26T05:31:10;98197.65;;;4.89;54.18
56689;BME280;42565;53.342;-1.534;2022-12-26T05:33:38;98208.21;;;4.83;54.63
56689;BME280;42565;53.342;-1.534;2022-12-26T05:36:06;98216.66;;;4.43;54.53
56689;BME280;42565;53.342;-1.534;2022-12-26T05:38:33;98216.34;;;5.41;53.20
56689;BME280;42565;53.342;-1.534;2022-12-26T05:41:00;98225.95;;;4.87;54.49
56689;BME280;42565;53.342;-1.534;2022-12-26T05:43:27;98230.05;;;4.59;53.95
56689;BME280;42565;53.342;-1.534;2022-12-26T05:45:55;98228.78;;;4.76;54.46
56689;BME280;42565;53.342;-1.534;2022-12-26T05:48:22;98222.77;;;4.73;54.42
56689;BME280;42565;53.342;-1.534;2022-12-26T05:50:49;98234.40;;;5.28;53.22
56689;BME280;42565;53.342;-1.534;2022-12-26T05:53:17;98241.29;;;4.58;53.36
56689;BME280;42565;53.342;-1.534;2022-12-26T05:55:43;98243.38;;;4.29;54.69
56689;BME280;42565;53.342;-1.534;2022-12-26T05:58:10;98252.68;;;4.61;53.93
56689;BME280;42565;53.342;-1.534;2022-12-26T06:00:37;98256.92;;;4.82;53.84
56689;BME280;42565;53.342;-1.534;2022-12-26T06:03:03;98256.24;;;4.75;54.01
56689;BME280;42565;53.342;-1.534;2022-12-26T06:05:30;98258.74;;;4.72;53.93
56689;BME280;42565;53.342;-1.534;2022-12-26T06:07:57;98265.88;;;4.34;54.71
56689;BME280;42565;53.342;-1.534;2022-12-26T06:10:25;98265.91;;;4.25;53.83
56689;BME280;42565;53.342;-1.534;2022-12-26T06:12:52;98265.49;;;4.41;53.89
56689;BME280;42565;53.342;-1.534;2022-12-26T06:15:19;98267.57;;;5.03;53.17
56689;BME280;42565;53.342;-1.534;2022-12-26T06:17:46;98274.32;;;4.50;53.68
56689;BME280;42565;53.342;-1.534;2022-12-26T06:20:13;98272.36;;;4.23;53.95
56689;BME280;42565;53.342;-1.534;2022-12-26T06:22:40;98280.85;;;4.87;53.13
56689;BME280;42565;53.342;-1.534;2022-12-26T06:25:08;98285.68;;;4.83;51.51
56689;BME280;42565;53.342;-1.534;2022-12-26T06:27:35;98292.55;;;4.40;53.40
56689;BME280;42565;53.342;-1.534;2022-12-26T06:30:02;98294.22;;;4.76;52.56
56689;BME280;42565;53.342;-1.534;2022-12-26T06:32:30;98295.39;;;5.20;50.96
56689;BME280;42565;53.342;-1.534;2022-12-26T06:34:56;98303.04;;;5.16;50.94
56689;BME280;42565;53.342;-1.534;2022-12-26T06:37:23;98302.67;;;5.14;52.31
56689;BME280;42565;53.342;-1.534;2022-12-26T06:39:50;98308.80;;;4.98;52.02
56689;BME280;42565;53.342;-1.534;2022-12-26T06:42:17;98314.26;;;4.80;52.23
56689;BME280;42565;53.342;-1.534;2022-12-26T06:44:43;98321.16;;;4.98;51.44
56689;BME280;42565;53.342;-1.534;2022-12-26T06:47:10;98324.94;;;4.97;51.65
56689;BME280;42565;53.342;-1.534;2022-12-26T06:49:37;98333.72;;;5.26;51.50
56689;BME280;42565;53.342;-1.534;2022-12-26T06:52:04;98341.42;;;4.60;52.20
56689;BME280;42565;53.342;-1.534;2022-12-26T06:54:31;98346.21;;;5.02;52.44
56689;BME280;42565;53.342;-1.534;2022-12-26T06:56:58;98359.79;;;4.48;53.73
56689;BME280;42565;53.342;-1.534;2022-12-26T06:59:25;98370.71;;;4.41;53.61
56689;BME280;42565;53.342;-1.534;2022-12-26T07:01:51;98368.50;;;4.75;52.77
56689;BME280;42565;53.342;-1.534;2022-12-26T07:04:18;98379.59;;;5.23;51.75
56689;BME280;42565;53.342;-1.534;2022-12-26T07:06:45;98384.06;;;5.07;51.94
56689;BME280;42565;53.342;-1.534;2022-12-26T07:09:14;98388.92;;;5.52;51.44
56689;BME280;42565;53.342;-1.534;2022-12-26T07:11:44;98392.09;;;5.15;51.43
56689;BME280;42565;53.342;-1.534;2022-12-26T07:14:11;98398.72;;;5.10;51.49
56689;BME280;42565;53.342;-1.534;2022-12-26T07:16:41;98397.65;;;4.84;52.00
56689;BME280;42565;53.342;-1.534;2022-12-26T07:19:10;98393.09;;;5.21;52.42
56689;BME280;42565;53.342;-1.534;2022-12-26T07:21:38;98388.29;;;5.26;52.19
56689;BME280;42565;53.342;-1.534;2022-12-26T07:24:06;98394.85;;;4.90;52.35
56689;BME280;42565;53.342;-1.534;2022-12-26T07:26:33;98392.35;;;5.17;51.04
56689;BME280;42565;53.342;-1.534;2022-12-26T07:29:01;98397.94;;;5.53;50.95
56689;BME280;42565;53.342;-1.534;2022-12-26T07:32:02;98392.15;;;6.06;50.89
56689;BME280;42565;53.342;-1.534;2022-12-26T07:34:29;98402.77;;;5.80;49.86
56689;BME280;42565;53.342;-1.534;2022-12-26T07:36:56;98407.07;;;5.75;49.69
56689;BME280;42565;53.342;-1.534;2022-12-26T07:39:23;98413.95;;;5.56;50.32
56689;BME280;42565;53.342;-1.534;2022-12-26T07:41:50;98421.08;;;5.65;50.22
56689;BME280;42565;53.342;-1.534;2022-12-26T07:44:17;98421.91;;;5.61;51.06
56689;BME280;42565;53.342;-1.534;2022-12-26T07:46:43;98423.01;;;5.09;51.96
56689;BME280;42565;53.342;-1.534;2022-12-26T07:49:11;98421.19;;;5.14;51.45
56689;BME280;42565;53.342;-1.534;2022-12-26T07:51:38;98418.39;;;4.86;52.19
56689;BME280;42565;53.342;-1.534;2022-12-26T07:54:05;98412.76;;;5.05;52.80
56689;BME280;42565;53.342;-1.534;2022-12-26T07:56:32;98408.52;;;5.09;52.70
56689;BME280;42565;53.342;-1.534;2022-12-26T07:58:59;98407.08;;;5.14;52.55
56689;BME280;42565;53.342;-1.534;2022-12-26T08:01:27;98404.99;;;5.06;52.86
56689;BME280;42565;53.342;-1.534;2022-12-26T08:03:54;98409.21;;;4.71;53.24
56689;BME280;42565;53.342;-1.534;2022-12-26T08:06:22;98411.73;;;4.71;54.26
56689;BME280;42565;53.342;-1.534;2022-12-26T08:08:50;98415.25;;;4.61;54.19
56689;BME280;42565;53.342;-1.534;2022-12-26T08:11:20;98414.96;;;4.37;55.42
56689;BME280;42565;53.342;-1.534;2022-12-26T08:13:48;98420.23;;;3.93;58.39
56689;BME280;42565;53.342;-1.534;2022-12-26T08:16:15;98412.99;;;3.72;59.37
56689;BME280;42565;53.342;-1.534;2022-12-26T08:18:42;98412.25;;;3.79;60.00
56689;BME280;42565;53.342;-1.534;2022-12-26T08:21:10;98412.20;;;3.10;61.86
56689;BME280;42565;53.342;-1.534;2022-12-26T08:23:38;98413.64;;;3.31;60.94
56689;BME280;42565;53.342;-1.534;2022-12-26T08:26:06;98421.14;;;3.39;61.15
56689;BME280;42565;53.342;-1.534;2022-12-26T08:28:34;98426.62;;;2.50;64.17
56689;BME280;42565;53.342;-1.534;2022-12-26T08:31:12;98427.05;;;2.85;64.28
56689;BME280;42565;53.342;-1.534;2022-12-26T08:33:45;98438.91;;;3.31;64.63
56689;BME280;42565;53.342;-1.534;2022-12-26T08:36:36;98432.37;;;2.98;63.99
56689;BME280;42565;53.342;-1.534;2022-12-26T08:39:03;98436.13;;;3.12;64.03
56689;BME280;42565;53.342;-1.534;2022-12-26T08:41:30;98439.02;;;3.04;64.46
56689;BME280;42565;53.342;-1.534;2022-12-26T08:43:58;98438.34;;;3.79;63.38
56689;BME280;42565;53.342;-1.534;2022-12-26T08:46:25;98445.98;;;4.07;61.48
56689;BME280;42565;53.342;-1.534;2022-12-26T08:48:53;98450.92;;;3.71;60.85
56689;BME280;42565;53.342;-1.534;2022-12-26T08:51:21;98449.04;;;3.26;61.43
56689;BME280;42565;53.342;-1.534;2022-12-26T08:53:50;98460.95;;;3.48;61.06
56689;BME280;42565;53.342;-1.534;2022-12-26T08:56:20;98471.41;;;4.37;60.23
56689;BME280;42565;53.342;-1.534;2022-12-26T08:58:49;98473.77;;;4.59;58.17
56689;BME280;42565;53.342;-1.534;2022-12-26T09:01:18;98486.04;;;4.61;57.37
56689;BME280;42565;53.342;-1.534;2022-12-26T09:03:46;98489.17;;;4.16;59.51
56689;BME280;42565;53.342;-1.534;2022-12-26T09:06:14;98480.57;;;4.59;59.02
56689;BME280;42565;53.342;-1.534;2022-12-26T09:08:41;98483.79;;;4.87;58.27
56689;BME280;42565;53.342;-1.534;2022-12-26T09:11:11;98479.52;;;5.47;57.13
56689;BME280;42565;53.342;-1.534;2022-12-26T09:13:49;98485.51;;;6.12;54.96
56689;BME280;42565;53.342;-1.534;2022-12-26T09:16:42;98490.88;;;7.73;50.55
56689;BME280;42565;53.342;-1.534;2022-12-26T09:19:11;98492.77;;;7.43;50.20
56689;BME280;42565;53.342;-1.534;2022-12-26T09:21:38;98494.97;;;8.15;48.13
56689;BME280;42565;53.342;-1.534;2022-12-26T09:24:09;98497.15;;;8.47;47.73
56689;BME280;42565;53.342;-1.534;2022-12-26T09:26:37;98499.49;;;8.97;46.77
56689;BME280;42565;53.342;-1.534;2022-12-26T09:29:05;98502.44;;;8.27;46.19
56689;BME280;42565;53.342;-1.534;2022-12-26T09:31:34;98503.04;;;8.38;46.38
56689;BME280;42565;53.342;-1.534;2022-12-26T09:34:02;98515.59;;;8.89;45.24
56689;BME280;42565;53.342;-1.534;2022-12-26T09:36:32;98504.88;;;8.51;45.75
56689;BME280;42565;53.342;-1.534;2022-12-26T09:39:00;98502.87;;;8.56;45.58
56689;BME280;42565;53.342;-1.534;2022-12-26T09:41:39;98512.52;;;9.31;44.30
56689;BME280;42565;53.342;-1.534;2022-12-26T09:44:16;98519.22;;;8.74;45.70
56689;BME280;42565;53.342;-1.534;2022-12-26T09:46:57;98518.39;;;9.32;45.44
56689;BME280;42565;53.342;-1.534;2022-12-26T09:49:30;98517.68;;;8.24;46.25
56689;BME280;42565;53.342;-1.534;2022-12-26T09:52:07;98524.27;;;9.75;44.46
56689;BME280;42565;53.342;-1.534;2022-12-26T09:54:39;98534.85;;;10.19;43.28
56689;BME280;42565;53.342;-1.534;2022-12-26T09:57:13;98537.14;;;9.53;43.37
56689;BME280;42565;53.342;-1.534;2022-12-26T09:59:47;98537.01;;;9.58;44.04
56689;BME280;42565;53.342;-1.534;2022-12-26T10:02:17;98545.20;;;9.50;44.85
56689;BME280;42565;53.342;-1.534;2022-12-26T10:04:45;98545.63;;;9.86;44.62
56689;BME280;42565;53.342;-1.534;2022-12-26T10:07:19;98546.17;;;10.57;44.04
56689;BME280;42565;53.342;-1.534;2022-12-26T10:09:55;98549.59;;;9.49;44.02
56689;BME280;42565;53.342;-1.534;2022-12-26T10:12:35;98552.85;;;9.42;47.79
56689;BME280;42565;53.342;-1.534;2022-12-26T10:15:12;98550.42;;;9.60;44.70
56689;BME280;42565;53.342;-1.534;2022-12-26T10:17:48;98552.88;;;10.30;44.34
56689;BME280;42565;53.342;-1.534;2022-12-26T10:20:23;98558.43;;;9.47;45.62
56689;BME280;42565;53.342;-1.534;2022-12-26T10:23:06;98553.20;;;9.63;45.85
56689;BME280;42565;53.342;-1.534;2022-12-26T10:25:42;98562.49;;;8.68;46.49
56689;BME280;42565;53.342;-1.534;2022-12-26T10:28:26;98575.34;;;8.70;47.45
56689;BME280;42565;53.342;-1.534;2022-12-26T10:32:38;98574.89;;;7.99;49.63
56689;BME280;42565;53.342;-1.534;2022-12-26T10:35:20;98579.97;;;8.35;49.57
56689;BME280;42565;53.342;-1.534;2022-12-26T10:37:51;98583.59;;;8.62;48.90
56689;BME280;42565;53.342;-1.534;2022-12-26T10:40:21;98592.85;;;8.57;48.48
56689;BME280;42565;53.342;-1.534;2022-12-26T10:42:53;98591.08;;;9.33;47.18
56689;BME280;42565;53.342;-1.534;2022-12-26T10:45:28;98590.32;;;9.50;46.51
56689;BME280;42565;53.342;-1.534;2022-12-26T10:47:59;98595.22;;;9.76;45.65
56689;BME280;42565;53.342;-1.534;2022-12-26T10:50:29;98597.29;;;10.01;44.89
56689;BME280;42565;53.342;-1.534;2022-12-26T10:52:58;98596.06;;;9.86;44.08
56689;BME280;42565;53.342;-1.534;2022-12-26T10:55:29;98597.44;;;10.28;44.01
56689;BME280;42565;53.342;-1.534;2022-12-26T10:58:01;98597.90;;;10.44;43.19
56689;BME280;42565;53.342;-1.534;2022-12-26T11:00:29;98599.72;;;9.47;44.66
56689;BME280;42565;53.342;-1.534;2022-12-26T11:03:03;98602.21;;;9.67;45.31
56689;BME280;42565;53.342;-1.534;2022-12-26T11:05:31;98592.61;;;9.09;46.80
56689;BME280;42565;53.342;-1.534;2022-12-26T11:08:07;98594.08;;;8.61;47.67
56689;BME280;42565;53.342;-1.534;2022-12-26T11:10:35;98597.92;;;9.21;47.14
56689;BME280;42565;53.342;-1.534;2022-12-26T11:13:06;98591.20;;;8.46;47.56
56689;BME280;42565;53.342;-1.534;2022-12-26T11:15:37;98592.86;;;8.48;47.96
56689;BME280;42565;53.342;-1.534;2022-12-26T11:18:15;98604.29;;;8.90;48.63
56689;BME280;42565;53.342;-1.534;2022-12-26T11:20:44;98604.59;;;8.70;48.00
56689;BME280;42565;53.342;-1.534;2022-12-26T11:23:20;98607.57;;;9.82;46.98
56689;BME280;42565;53.342;-1.534;2022-12-26T11:25:52;98603.39;;;9.16;47.14
56689;BME280;42565;53.342;-1.534;2022-12-26T11:28:26;98606.46;;;9.76;46.68
56689;BME280;42565;53.342;-1.534;2022-12-26T11:30:55;98607.85;;;9.72;46.77
56689;BME280;42565;53.342;-1.534;2022-12-26T11:33:24;98609.66;;;9.38;47.34
56689;BME280;42565;53.342;-1.534;2022-12-26T11:35:59;98609.08;;;9.53;45.89
56689;BME280;42565;53.342;-1.534;2022-12-26T11:38:29;98624.19;;;9.14;46.85
56689;BME280;42565;53.342;-1.534;2022-12-26T11:40:57;98617.45;;;9.09;48.63
56689;BME280;42565;53.342;-1.534;2022-12-26T11:43:26;98620.93;;;9.34;47.84
56689;BME280;42565;53.342;-1.534;2022-12-26T11:45:53;98617.53;;;9.07;47.86
56689;BME280;42565;53.342;-1.534;2022-12-26T11:48:24;98622.36;;;9.36;46.22
56689;BME280;42565;53.342;-1.534;2022-12-26T11:50:52;98623.46;;;8.75;47.94
56689;BME280;42565;53.342;-1.534;2022-12-26T11:53:21;98621.80;;;9.14;47.44
56689;BME280;42565;53.342;-1.534;2022-12-26T11:55:58;98609.02;;;8.57;48.44
56689;BME280;42565;53.342;-1.534;2022-12-26T11:58:28;98613.16;;;8.37;48.57
56689;BME280;42565;53.342;-1.534;2022-12-26T12:01:06;98609.67;;;8.31;48.52
56689;BME280;42565;53.342;-1.534;2022-12-26T12:03:35;98607.15;;;9.10;48.65
56689;BME280;42565;53.342;-1.534;2022-12-26T12:06:18;98617.41;;;8.73;48.00
56689;BME280;42565;53.342;-1.534;2022-12-26T12:08:57;98628.32;;;7.94;49.46
56689;BME280;42565;53.342;-1.534;2022-12-26T12:11:34;98632.02;;;8.01;49.91
56689;BME280;42565;53.342;-1.534;2022-12-26T12:14:18;98632.35;;;8.49;49.47
56689;BME280;42565;53.342;-1.534;2022-12-26T12:16:58;98635.30;;;7.98;50.02
56689;BME280;42565;53.342;-1.534;2022-12-26T12:19:37;98638.20;;;8.42;48.91
56689;BME280;42565;53.342;-1.534;2022-12-26T12:22:18;98641.54;;;8.40;49.47
56689;BME280;42565;53.342;-1.534;2022-12-26T12:25:06;98632.10;;;8.21;49.78
56689;BME280;42565;53.342;-1.534;2022-12-26T12:27:44;98631.02;;;7.84;50.17
56689;BME280;42565;53.342;-1.534;2022-12-26T12:30:17;98620.65;;;7.97;49.95
56689;BME280;42565;53.342;-1.534;2022-12-26T12:32:59;98622.97;;;8.12;50.32
56689;BME280;42565;53.342;-1.534;2022-12-26T12:35:38;98625.21;;;8.87;48.68
56689;BME280;42565;53.342;-1.534;2022-12-26T12:38:26;98605.03;;;8.96;47.33
56689;BME280;42565;53.342;-1.534;2022-12-26T12:41:05;98603.15;;;8.55;48.46
56689;BME280;42565;53.342;-1.534;2022-12-26T12:43:42;98614.63;;;8.12;48.42
56689;BME280;42565;53.342;-1.534;2022-12-26T12:46:20;98606.40;;;7.83;48.97
56689;BME280;42565;53.342;-1.534;2022-12-26T12:49:00;98614.50;;;7.90;49.71
56689;BME280;42565;53.342;-1.534;2022-12-26T12:51:36;98609.08;;;8.70;48.56
56689;BME280;42565;53.342;-1.534;2022-12-26T12:54:27;98607.15;;;8.58;48.65
56689;BME280;42565;53.342;-1.534;2022-12-26T12:57:03;98615.60;;;7.81;49.26
56689;BME280;42565;53.342;-1.534;2022-12-26T12:59:47;98611.28;;;7.36;50.59
56689;BME280;42565;53.342;-1.534;2022-12-26T13:02:26;98617.52;;;6.94;51.45
56689;BME280;42565;53.342;-1.534;2022-12-26T13:05:01;98622.63;;;7.70;50.64
56689;BME280;42565;53.342;-1.534;2022-12-26T13:07:33;98623.35;;;7.67;50.38
56689;BME280;42565;53.342;-1.534;2022-12-26T13:10:11;98632.54;;;7.41;51.04
56689;BME280;42565;53.342;-1.534;2022-12-26T13:12:40;98625.72;;;7.29;51.20
56689;BME280;42565;53.342;-1.534;2022-12-26T13:15:19;98628.42;;;7.44;51.64
56689;BME280;42565;53.342;-1.534;2022-12-26T13:17:52;98629.92;;;7.41;51.52
56689;BME280;42565;53.342;-1.534;2022-12-26T13:20:24;98633.56;;;7.73;51.17
56689;BME280;42565;53.342;-1.534;2022-12-26T13:22:57;98619.52;;;7.80;50.81
56689;BME280;42565;53.342;-1.534;2022-12-26T13:25:31;98631.37;;;7.34;51.39